Brunswick, New York
Current Conditions -  °F | °C
As of 9:51 PM on Tuesday 21 Oct 2014 (Local Time) from KALB Reporting Station
Light Rain Light Rain  
Wind Chill: 51°   Ceiling: 800
Heat Index: 51°   Visibility: 9mi
Dew Point: 47°   Wind: 7mph
Humidity: 86%   Direction: 20°NNE
Pressure: 30"   Gusts: NA
Location:  42.7478°N, 73.6049°W
Report Text: KALB 220151Z 02006KT 9SM -RA BKN008 OVC055 11/08 A3000 RMK AO2 RAB29 SLP160 P0000 T01060083
Loading
Personal Weather Stations






























Interactive Weather Map New forecast layout! Learn more

10-Day Weather Forecast

Advertisements
Track Severe Weather on mobile